sensor_id;sensor_type;location;lat;lon;timestamp;pressure;altitude;pressure_sealevel;temperature;humidity
78206;BME280;67480;48.920;12.880;2023-05-20T00:01:27;97214.94;;;14.45;49.88
78206;BME280;67480;48.920;12.880;2023-05-20T00:03:53;97205.75;;;14.38;49.89
78206;BME280;67480;48.920;12.880;2023-05-20T00:06:18;97207.53;;;14.33;50.32
78206;BME280;67480;48.920;12.880;2023-05-20T00:08:43;97195.75;;;14.29;50.30
78206;BME280;67480;48.920;12.880;2023-05-20T00:11:09;97208.19;;;14.30;50.53
78206;BME280;67480;48.920;12.880;2023-05-20T00:13:34;97202.44;;;14.32;50.40
78206;BME280;67480;48.920;12.880;2023-05-20T00:16:00;97200.19;;;14.34;50.28
78206;BME280;67480;48.920;12.880;2023-05-20T00:18:25;97206.38;;;14.34;50.07
78206;BME280;67480;48.920;12.880;2023-05-20T00:20:51;97196.22;;;14.31;49.72
78206;BME280;67480;48.920;12.880;2023-05-20T00:23:18;97185.53;;;14.35;50.00
78206;BME280;67480;48.920;12.880;2023-05-20T00:25:43;97186.06;;;14.28;49.38
78206;BME280;67480;48.920;12.880;2023-05-20T00:28:08;97188.63;;;14.25;49.96
78206;BME280;67480;48.920;12.880;2023-05-20T00:30:34;97189.78;;;14.24;50.24
78206;BME280;67480;48.920;12.880;2023-05-20T00:32:59;97184.09;;;14.16;50.34
78206;BME280;67480;48.920;12.880;2023-05-20T00:35:24;97171.34;;;14.17;50.09
78206;BME280;67480;48.920;12.880;2023-05-20T00:37:50;97182.84;;;14.14;50.21
78206;BME280;67480;48.920;12.880;2023-05-20T00:40:15;97182.84;;;14.14;50.07
78206;BME280;67480;48.920;12.880;2023-05-20T00:42:40;97186.47;;;14.18;50.25
78206;BME280;67480;48.920;12.880;2023-05-20T00:45:06;97175.19;;;14.16;50.37
78206;BME280;67480;48.920;12.880;2023-05-20T00:47:32;97174.53;;;14.19;50.08
78206;BME280;67480;48.920;12.880;2023-05-20T00:50:00;97172.34;;;14.12;49.88
78206;BME280;67480;48.920;12.880;2023-05-20T00:52:28;97181.25;;;14.13;50.13
78206;BME280;67480;48.920;12.880;2023-05-20T00:54:55;97180.00;;;14.10;49.67
78206;BME280;67480;48.920;12.880;2023-05-20T00:57:20;97168.97;;;14.15;49.94
78206;BME280;67480;48.920;12.880;2023-05-20T00:59:45;97171.09;;;14.10;50.39
78206;BME280;67480;48.920;12.880;2023-05-20T01:02:11;97166.00;;;14.08;50.49
78206;BME280;67480;48.920;12.880;2023-05-20T01:04:37;97171.75;;;14.07;50.48
78206;BME280;67480;48.920;12.880;2023-05-20T01:07:04;97172.53;;;14.07;50.43
78206;BME280;67480;48.920;12.880;2023-05-20T01:09:34;97168.47;;;14.01;49.89
78206;BME280;67480;48.920;12.880;2023-05-20T01:12:11;97159.88;;;13.99;50.02
78206;BME280;67480;48.920;12.880;2023-05-20T01:14:48;97165.28;;;13.99;49.51
78206;BME280;67480;48.920;12.880;2023-05-20T01:17:15;97162.31;;;14.13;49.38
78206;BME280;67480;48.920;12.880;2023-05-20T01:19:43;97157.34;;;14.15;48.81
78206;BME280;67480;48.920;12.880;2023-05-20T01:22:10;97154.06;;;14.09;49.40
78206;BME280;67480;48.920;12.880;2023-05-20T01:24:43;97152.03;;;14.06;49.63
78206;BME280;67480;48.920;12.880;2023-05-20T01:27:10;97144.69;;;14.07;49.85
78206;BME280;67480;48.920;12.880;2023-05-20T01:29:38;97144.25;;;14.05;49.72
78206;BME280;67480;48.920;12.880;2023-05-20T01:32:10;97143.81;;;14.15;49.29
78206;BME280;67480;48.920;12.880;2023-05-20T01:34:36;97148.91;;;14.16;49.08
78206;BME280;67480;48.920;12.880;2023-05-20T01:37:03;97141.56;;;14.17;49.34
78206;BME280;67480;48.920;12.880;2023-05-20T01:39:30;97138.38;;;14.03;49.13
78206;BME280;67480;48.920;12.880;2023-05-20T01:41:56;97133.88;;;14.07;49.31
78206;BME280;67480;48.920;12.880;2023-05-20T01:44:22;97142.25;;;14.14;49.39
78206;BME280;67480;48.920;12.880;2023-05-20T01:46:48;97142.78;;;14.07;48.87
78206;BME280;67480;48.920;12.880;2023-05-20T01:49:14;97149.56;;;14.13;48.81
78206;BME280;67480;48.920;12.880;2023-05-20T01:51:39;97148.19;;;14.07;49.02
78206;BME280;67480;48.920;12.880;2023-05-20T01:54:04;97151.81;;;14.11;48.86
78206;BME280;67480;48.920;12.880;2023-05-20T01:56:30;97150.31;;;14.02;49.42
78206;BME280;67480;48.920;12.880;2023-05-20T01:58:55;97137.91;;;14.00;49.65
78206;BME280;67480;48.920;12.880;2023-05-20T02:01:20;97141.41;;;14.01;49.50
78206;BME280;67480;48.920;12.880;2023-05-20T02:03:46;97136.78;;;14.02;49.31
78206;BME280;67480;48.920;12.880;2023-05-20T02:06:11;97141.63;;;13.96;49.72
78206;BME280;67480;48.920;12.880;2023-05-20T02:08:36;97146.94;;;14.05;48.99
78206;BME280;67480;48.920;12.880;2023-05-20T02:11:02;97147.72;;;14.05;49.07
78206;BME280;67480;48.920;12.880;2023-05-20T02:13:28;97141.25;;;13.97;49.19
78206;BME280;67480;48.920;12.880;2023-05-20T02:15:54;97145.16;;;14.09;49.33
78206;BME280;67480;48.920;12.880;2023-05-20T02:18:19;97136.78;;;14.02;49.31
78206;BME280;67480;48.920;12.880;2023-05-20T02:20:44;97135.78;;;14.06;49.35
78206;BME280;67480;48.920;12.880;2023-05-20T02:23:09;97136.00;;;14.01;49.08
78206;BME280;67480;48.920;12.880;2023-05-20T02:25:35;97142.84;;;13.98;49.07
78206;BME280;67480;48.920;12.880;2023-05-20T02:28:00;97140.41;;;14.06;49.07
78206;BME280;67480;48.920;12.880;2023-05-20T02:30:29;97141.25;;;13.97;49.10
78206;BME280;67480;48.920;12.880;2023-05-20T02:32:55;97131.38;;;14.02;48.90
78206;BME280;67480;48.920;12.880;2023-05-20T02:35:20;97134.41;;;14.00;48.80
78206;BME280;67480;48.920;12.880;2023-05-20T02:37:45;97131.50;;;14.05;49.12
78206;BME280;67480;48.920;12.880;2023-05-20T02:40:12;97139.63;;;14.05;49.19
78206;BME280;67480;48.920;12.880;2023-05-20T02:42:38;97139.28;;;14.07;49.39
78206;BME280;67480;48.920;12.880;2023-05-20T02:45:03;97137.97;;;13.92;48.72
78206;BME280;67480;48.920;12.880;2023-05-20T02:47:29;97127.56;;;14.03;49.05
78206;BME280;67480;48.920;12.880;2023-05-20T02:49:54;97122.25;;;14.06;49.20
78206;BME280;67480;48.920;12.880;2023-05-20T02:52:19;97121.59;;;14.09;48.63
78206;BME280;67480;48.920;12.880;2023-05-20T02:54:46;97125.31;;;14.05;48.76
78206;BME280;67480;48.920;12.880;2023-05-20T02:57:11;97122.16;;;14.15;48.18
78206;BME280;67480;48.920;12.880;2023-05-20T02:59:36;97119.47;;;14.15;49.00
78206;BME280;67480;48.920;12.880;2023-05-20T03:02:02;97127.00;;;14.09;48.99
78206;BME280;67480;48.920;12.880;2023-05-20T03:04:27;97125.84;;;13.98;48.79
78206;BME280;67480;48.920;12.880;2023-05-20T03:06:52;97116.47;;;13.95;48.52
78206;BME280;67480;48.920;12.880;2023-05-20T03:09:18;97116.19;;;14.09;48.59
78206;BME280;67480;48.920;12.880;2023-05-20T03:11:44;97118.84;;;13.97;48.85
78206;BME280;67480;48.920;12.880;2023-05-20T03:14:09;97109.72;;;14.02;48.59
78206;BME280;67480;48.920;12.880;2023-05-20T03:16:35;97109.59;;;13.98;48.79
78206;BME280;67480;48.920;12.880;2023-05-20T03:19:00;97112.19;;;13.94;48.95
78206;BME280;67480;48.920;12.880;2023-05-20T03:21:26;97112.69;;;13.88;48.61
78206;BME280;67480;48.920;12.880;2023-05-20T03:23:52;97108.66;;;13.94;48.75
78206;BME280;67480;48.920;12.880;2023-05-20T03:26:17;97111.84;;;13.96;48.41
78206;BME280;67480;48.920;12.880;2023-05-20T03:28:43;97112.31;;;13.98;48.47
78206;BME280;67480;48.920;12.880;2023-05-20T03:31:08;97113.28;;;13.93;48.58
78206;BME280;67480;48.920;12.880;2023-05-20T03:33:34;97112.63;;;13.96;49.12
78206;BME280;67480;48.920;12.880;2023-05-20T03:35:59;97110.50;;;14.02;48.87
78206;BME280;67480;48.920;12.880;2023-05-20T03:38:24;97106.69;;;14.03;49.17
78206;BME280;67480;48.920;12.880;2023-05-20T03:40:50;97108.41;;;14.08;48.68
78206;BME280;67480;48.920;12.880;2023-05-20T03:43:15;97108.34;;;13.95;49.47
78206;BME280;67480;48.920;12.880;2023-05-20T03:45:40;97111.03;;;13.95;48.98
78206;BME280;67480;48.920;12.880;2023-05-20T03:48:06;97116.22;;;13.88;49.66
78206;BME280;67480;48.920;12.880;2023-05-20T03:50:31;97120.31;;;13.94;49.27
78206;BME280;67480;48.920;12.880;2023-05-20T03:52:56;97128.34;;;14.03;49.32
78206;BME280;67480;48.920;12.880;2023-05-20T03:55:22;97133.28;;;14.01;49.38
78206;BME280;67480;48.920;12.880;2023-05-20T03:57:49;97123.69;;;14.04;49.32
78206;BME280;67480;48.920;12.880;2023-05-20T04:00:14;97130.09;;;13.99;49.23
78206;BME280;67480;48.920;12.880;2023-05-20T04:02:41;97123.66;;;13.91;49.70
78206;BME280;67480;48.920;12.880;2023-05-20T04:05:06;97116.66;;;13.90;49.93
78206;BME280;67480;48.920;12.880;2023-05-20T04:07:33;97125.19;;;13.80;49.04
78206;BME280;67480;48.920;12.880;2023-05-20T04:09:58;97122.13;;;14.03;49.42
78206;BME280;67480;48.920;12.880;2023-05-20T04:12:24;97117.75;;;14.10;49.48
78206;BME280;67480;48.920;12.880;2023-05-20T04:14:55;97125.56;;;13.91;50.46
78206;BME280;67480;48.920;12.880;2023-05-20T04:17:22;97123.59;;;14.00;50.10
78206;BME280;67480;48.920;12.880;2023-05-20T04:19:47;97131.56;;;13.96;50.48
78206;BME280;67480;48.920;12.880;2023-05-20T04:22:12;97128.88;;;13.96;50.51
78206;BME280;67480;48.920;12.880;2023-05-20T04:24:38;97127.94;;;13.92;50.47
78206;BME280;67480;48.920;12.880;2023-05-20T04:27:03;97120.16;;;13.91;50.65
78206;BME280;67480;48.920;12.880;2023-05-20T04:29:29;97121.09;;;13.95;50.42
78206;BME280;67480;48.920;12.880;2023-05-20T04:31:58;97116.78;;;13.94;49.74
78206;BME280;67480;48.920;12.880;2023-05-20T04:34:28;97112.88;;;14.04;50.43
78206;BME280;67480;48.920;12.880;2023-05-20T04:36:53;97114.84;;;14.15;50.40
78206;BME280;67480;48.920;12.880;2023-05-20T04:39:18;97109.91;;;14.17;49.92
78206;BME280;67480;48.920;12.880;2023-05-20T04:41:44;97119.00;;;14.13;50.97
78206;BME280;67480;48.920;12.880;2023-05-20T04:44:12;97122.63;;;14.17;50.35
78206;BME280;67480;48.920;12.880;2023-05-20T04:46:38;97116.22;;;14.22;50.32
78206;BME280;67480;48.920;12.880;2023-05-20T04:49:04;97113.19;;;14.23;50.21
78206;BME280;67480;48.920;12.880;2023-05-20T04:51:29;97115.16;;;14.35;49.94
78206;BME280;67480;48.920;12.880;2023-05-20T04:53:54;97110.34;;;14.41;48.68
78206;BME280;67480;48.920;12.880;2023-05-20T04:56:20;97110.56;;;14.48;49.40
78206;BME280;67480;48.920;12.880;2023-05-20T04:58:45;97114.97;;;14.52;49.78
78206;BME280;67480;48.920;12.880;2023-05-20T05:01:10;97118.59;;;14.57;50.27
78206;BME280;67480;48.920;12.880;2023-05-20T05:03:36;97109.88;;;14.39;49.33
78206;BME280;67480;48.920;12.880;2023-05-20T05:06:01;97103.00;;;14.41;50.11
78206;BME280;67480;48.920;12.880;2023-05-20T05:08:26;97105.13;;;14.48;49.75
78206;BME280;67480;48.920;12.880;2023-05-20T05:10:51;97105.84;;;14.57;49.04
78206;BME280;67480;48.920;12.880;2023-05-20T05:13:17;97106.56;;;14.66;49.73
78206;BME280;67480;48.920;12.880;2023-05-20T05:15:43;97103.72;;;14.75;48.89
78206;BME280;67480;48.920;12.880;2023-05-20T05:18:08;97099.44;;;14.86;49.51
78206;BME280;67480;48.920;12.880;2023-05-20T05:20:33;97099.34;;;14.83;50.09
78206;BME280;67480;48.920;12.880;2023-05-20T05:22:59;97095.72;;;14.91;50.28
78206;BME280;67480;48.920;12.880;2023-05-20T05:25:24;97099.91;;;15.01;50.45
78206;BME280;67480;48.920;12.880;2023-05-20T05:27:49;97098.66;;;14.98;50.07
78206;BME280;67480;48.920;12.880;2023-05-20T05:30:15;97095.16;;;15.10;49.51
78206;BME280;67480;48.920;12.880;2023-05-20T05:32:41;97100.94;;;15.08;49.11
78206;BME280;67480;48.920;12.880;2023-05-20T05:35:06;97095.72;;;15.16;47.82
78206;BME280;67480;48.920;12.880;2023-05-20T05:37:32;97100.13;;;15.20;47.95
78206;BME280;67480;48.920;12.880;2023-05-20T05:39:57;97100.66;;;15.26;47.64
78206;BME280;67480;48.920;12.880;2023-05-20T05:42:22;97097.28;;;15.41;47.37
78206;BME280;67480;48.920;12.880;2023-05-20T05:44:48;97107.00;;;15.42;47.16
78206;BME280;67480;48.920;12.880;2023-05-20T05:47:13;97111.41;;;15.47;46.64
78206;BME280;67480;48.920;12.880;2023-05-20T05:49:39;97105.63;;;15.61;46.88
78206;BME280;67480;48.920;12.880;2023-05-20T05:52:04;97113.75;;;15.61;46.29
78206;BME280;67480;48.920;12.880;2023-05-20T05:54:29;97111.34;;;15.72;46.40
78206;BME280;67480;48.920;12.880;2023-05-20T05:56:55;97106.75;;;15.88;48.21
78206;BME280;67480;48.920;12.880;2023-05-20T05:59:21;97109.38;;;15.85;48.61
78206;BME280;67480;48.920;12.880;2023-05-20T06:01:46;97121.81;;;15.86;47.66
78206;BME280;67480;48.920;12.880;2023-05-20T06:04:11;97115.72;;;15.89;46.77
78206;BME280;67480;48.920;12.880;2023-05-20T06:06:37;97108.91;;;15.95;46.38
78206;BME280;67480;48.920;12.880;2023-05-20T06:09:02;97101.47;;;16.08;47.51
78206;BME280;67480;48.920;12.880;2023-05-20T06:11:28;97111.16;;;15.93;48.00
78206;BME280;67480;48.920;12.880;2023-05-20T06:13:53;97108.00;;;15.91;47.95
78206;BME280;67480;48.920;12.880;2023-05-20T06:16:19;97107.28;;;16.06;49.09
78206;BME280;67480;48.920;12.880;2023-05-20T06:18:45;97110.09;;;16.10;47.54
78206;BME280;67480;48.920;12.880;2023-05-20T06:21:10;97116.13;;;16.19;47.48
78206;BME280;67480;48.920;12.880;2023-05-20T06:23:36;97118.84;;;16.19;48.05
78206;BME280;67480;48.920;12.880;2023-05-20T06:26:01;97108.53;;;16.25;48.08
78206;BME280;67480;48.920;12.880;2023-05-20T06:28:26;97107.50;;;16.29;47.93
78206;BME280;67480;48.920;12.880;2023-05-20T06:30:56;97120.19;;;16.25;48.61
78206;BME280;67480;48.920;12.880;2023-05-20T06:33:25;97119.41;;;16.25;48.65
78206;BME280;67480;48.920;12.880;2023-05-20T06:35:55;97118.03;;;16.31;48.58
78206;BME280;67480;48.920;12.880;2023-05-20T06:38:20;97114.84;;;16.29;48.01
78206;BME280;67480;48.920;12.880;2023-05-20T06:40:47;97114.47;;;16.43;48.25
78206;BME280;67480;48.920;12.880;2023-05-20T06:43:13;97104.94;;;16.49;48.91
78206;BME280;67480;48.920;12.880;2023-05-20T06:45:38;97102.09;;;16.45;48.04
78206;BME280;67480;48.920;12.880;2023-05-20T06:48:03;97099.59;;;16.52;47.90
78206;BME280;67480;48.920;12.880;2023-05-20T06:50:29;97111.09;;;16.62;46.43
78206;BME280;67480;48.920;12.880;2023-05-20T06:52:54;97110.13;;;16.70;48.25
78206;BME280;67480;48.920;12.880;2023-05-20T06:55:19;97106.25;;;16.71;47.71
78206;BME280;67480;48.920;12.880;2023-05-20T06:57:45;97092.50;;;16.80;46.56
78206;BME280;67480;48.920;12.880;2023-05-20T07:00:11;97106.69;;;17.05;46.56
78206;BME280;67480;48.920;12.880;2023-05-20T07:02:37;97101.66;;;17.23;46.83
78206;BME280;67480;48.920;12.880;2023-05-20T07:05:03;97094.13;;;17.32;44.85
78206;BME280;67480;48.920;12.880;2023-05-20T07:07:28;97094.13;;;17.68;45.89
78206;BME280;67480;48.920;12.880;2023-05-20T07:09:53;97092.84;;;17.81;43.29
78206;BME280;67480;48.920;12.880;2023-05-20T07:12:19;97080.66;;;17.94;43.08
78206;BME280;67480;48.920;12.880;2023-05-20T07:14:44;97072.25;;;18.03;42.67
78206;BME280;67480;48.920;12.880;2023-05-20T07:17:10;97086.53;;;18.16;42.39
78206;BME280;67480;48.920;12.880;2023-05-20T07:19:35;97090.19;;;18.24;41.86
78206;BME280;67480;48.920;12.880;2023-05-20T07:22:00;97093.38;;;18.29;40.90
78206;BME280;67480;48.920;12.880;2023-05-20T07:24:26;97097.94;;;18.45;41.43
78206;BME280;67480;48.920;12.880;2023-05-20T07:26:51;97090.81;;;18.36;40.86
78206;BME280;67480;48.920;12.880;2023-05-20T07:29:16;97098.25;;;18.40;41.32
78206;BME280;67480;48.920;12.880;2023-05-20T07:31:42;97107.00;;;18.10;40.72
78206;BME280;67480;48.920;12.880;2023-05-20T07:34:07;97077.16;;;18.13;41.33
78206;BME280;67480;48.920;12.880;2023-05-20T07:36:32;97080.88;;;18.25;41.59
78206;BME280;67480;48.920;12.880;2023-05-20T07:38:58;97087.84;;;18.45;41.91
78206;BME280;67480;48.920;12.880;2023-05-20T07:41:23;97082.38;;;18.68;42.83
78206;BME280;67480;48.920;12.880;2023-05-20T07:43:48;97090.75;;;18.79;41.74
78206;BME280;67480;48.920;12.880;2023-05-20T07:46:14;97084.78;;;18.97;41.05
78206;BME280;67480;48.920;12.880;2023-05-20T07:48:40;97086.97;;;18.87;39.25
78206;BME280;67480;48.920;12.880;2023-05-20T07:51:05;97084.56;;;19.05;40.91
78206;BME280;67480;48.920;12.880;2023-05-20T07:53:31;97086.50;;;19.05;39.93
78206;BME280;67480;48.920;12.880;2023-05-20T07:55:57;97090.94;;;18.90;40.49
78206;BME280;67480;48.920;12.880;2023-05-20T07:58:22;97084.97;;;19.07;41.25
78206;BME280;67480;48.920;12.880;2023-05-20T08:00:48;97089.69;;;19.10;40.42
78206;BME280;67480;48.920;12.880;2023-05-20T08:03:13;97083.63;;;19.21;39.96
78206;BME280;67480;48.920;12.880;2023-05-20T08:05:40;97074.56;;;19.43;39.96
78206;BME280;67480;48.920;12.880;2023-05-20T08:08:05;97081.38;;;19.26;40.33
78206;BME280;67480;48.920;12.880;2023-05-20T08:10:31;97084.75;;;19.46;38.98
78206;BME280;67480;48.920;12.880;2023-05-20T08:12:56;97092.47;;;19.71;39.32
78206;BME280;67480;48.920;12.880;2023-05-20T08:15:21;97090.19;;;19.73;39.26
78206;BME280;67480;48.920;12.880;2023-05-20T08:17:47;97084.59;;;19.93;38.63
78206;BME280;67480;48.920;12.880;2023-05-20T08:20:12;97096.47;;;19.77;38.94
78206;BME280;67480;48.920;12.880;2023-05-20T08:22:37;97082.53;;;19.56;38.49
78206;BME280;67480;48.920;12.880;2023-05-20T08:25:03;97075.13;;;19.56;39.86
78206;BME280;67480;48.920;12.880;2023-05-20T08:27:28;97078.75;;;19.64;39.73
78206;BME280;67480;48.920;12.880;2023-05-20T08:29:54;97068.22;;;19.66;39.52
78206;BME280;67480;48.920;12.880;2023-05-20T08:32:19;97075.72;;;20.03;40.11
78206;BME280;67480;48.920;12.880;2023-05-20T08:34:45;97079.03;;;20.19;38.33
78206;BME280;67480;48.920;12.880;2023-05-20T08:37:10;97082.22;;;20.63;38.98
78206;BME280;67480;48.920;12.880;2023-05-20T08:39:35;97066.44;;;20.93;38.35
78206;BME280;67480;48.920;12.880;2023-05-20T08:42:01;97069.59;;;20.99;37.94
78206;BME280;67480;48.920;12.880;2023-05-20T08:44:28;97079.19;;;21.30;37.34
78206;BME280;67480;48.920;12.880;2023-05-20T08:46:55;97070.34;;;21.52;37.51
78206;BME280;67480;48.920;12.880;2023-05-20T08:49:21;97061.81;;;21.71;35.66
78206;BME280;67480;48.920;12.880;2023-05-20T08:51:46;97081.88;;;21.90;35.74
78206;BME280;67480;48.920;12.880;2023-05-20T08:54:12;97068.66;;;22.10;35.20
78206;BME280;67480;48.920;12.880;2023-05-20T08:56:39;97076.75;;;21.84;34.86
78206;BME280;67480;48.920;12.880;2023-05-20T08:59:06;97075.97;;;21.80;34.97
78206;BME280;67480;48.920;12.880;2023-05-20T09:01:35;97079.53;;;22.02;34.38
78206;BME280;67480;48.920;12.880;2023-05-20T09:04:03;97075.25;;;21.98;33.77
78206;BME280;67480;48.920;12.880;2023-05-20T09:06:29;97070.50;;;21.88;33.32
78206;BME280;67480;48.920;12.880;2023-05-20T09:08:54;97075.69;;;22.07;32.97
78206;BME280;67480;48.920;12.880;2023-05-20T09:11:19;97078.53;;;22.72;33.67
78206;BME280;67480;48.920;12.880;2023-05-20T09:13:46;97077.34;;;23.41;31.93
78206;BME280;67480;48.920;12.880;2023-05-20T09:16:11;97087.81;;;23.86;32.59
78206;BME280;67480;48.920;12.880;2023-05-20T09:18:38;97085.84;;;23.90;30.67
78206;BME280;67480;48.920;12.880;2023-05-20T09:21:04;97072.81;;;23.98;30.39
78206;BME280;67480;48.920;12.880;2023-05-20T09:23:36;97072.34;;;24.17;30.38
78206;BME280;67480;48.920;12.880;2023-05-20T09:26:03;97075.50;;;24.75;30.13
78206;BME280;67480;48.920;12.880;2023-05-20T09:28:28;97065.34;;;25.18;29.14
78206;BME280;67480;48.920;12.880;2023-05-20T09:30:57;97083.38;;;25.26;29.11
78206;BME280;67480;48.920;12.880;2023-05-20T09:33:28;97092.41;;;25.68;28.21
78206;BME280;67480;48.920;12.880;2023-05-20T09:36:01;97085.38;;;25.94;27.87
78206;BME280;67480;48.920;12.880;2023-05-20T09:38:28;97091.88;;;26.42;30.21
78206;BME280;67480;48.920;12.880;2023-05-20T09:41:01;97089.41;;;26.20;28.21
78206;BME280;67480;48.920;12.880;2023-05-20T09:43:28;97075.56;;;27.02;27.21
78206;BME280;67480;48.920;12.880;2023-05-20T09:45:54;97073.75;;;27.79;27.47
78206;BME280;67480;48.920;12.880;2023-05-20T09:48:20;97071.69;;;27.43;26.83
78206;BME280;67480;48.920;12.880;2023-05-20T09:50:47;97065.44;;;28.56;26.35
78206;BME280;67480;48.920;12.880;2023-05-20T09:53:14;97080.09;;;27.80;26.03
78206;BME280;67480;48.920;12.880;2023-05-20T09:55:40;97078.81;;;27.44;27.21
78206;BME280;67480;48.920;12.880;2023-05-20T09:58:07;97076.94;;;27.78;26.63
78206;BME280;67480;48.920;12.880;2023-05-20T10:00:33;97073.44;;;29.33;25.06
78206;BME280;67480;48.920;12.880;2023-05-20T10:02:59;97075.00;;;29.92;24.86
78206;BME280;67480;48.920;12.880;2023-05-20T10:05:29;97080.59;;;30.05;23.82
78206;BME280;67480;48.920;12.880;2023-05-20T10:08:04;97088.19;;;28.64;24.72
78206;BME280;67480;48.920;12.880;2023-05-20T10:10:44;97077.53;;;28.09;24.87
78206;BME280;67480;48.920;12.880;2023-05-20T10:18:32;97077.53;;;27.49;25.37
78206;BME280;67480;48.920;12.880;2023-05-20T10:21:01;97073.13;;;27.52;24.50
78206;BME280;67480;48.920;12.880;2023-05-20T10:23:27;97066.31;;;27.56;24.60
78206;BME280;67480;48.920;12.880;2023-05-20T10:25:54;97075.41;;;27.77;25.38
78206;BME280;67480;48.920;12.880;2023-05-20T10:28:36;97060.47;;;26.60;25.76
78206;BME280;67480;48.920;12.880;2023-05-20T10:31:13;97047.78;;;26.89;26.13
78206;BME280;67480;48.920;12.880;2023-05-20T10:33:43;97069.41;;;26.13;26.24
78206;BME280;67480;48.920;12.880;2023-05-20T10:36:09;97071.59;;;26.52;26.25
78206;BME280;67480;48.920;12.880;2023-05-20T10:38:34;97064.13;;;27.47;25.72
78206;BME280;67480;48.920;12.880;2023-05-20T10:41:09;97070.69;;;29.33;24.51
78206;BME280;67480;48.920;12.880;2023-05-20T10:43:37;97069.38;;;29.37;22.81
78206;BME280;67480;48.920;12.880;2023-05-20T10:46:02;97068.66;;;29.20;22.82
78206;BME280;67480;48.920;12.880;2023-05-20T10:48:31;97065.19;;;28.83;23.41
78206;BME280;67480;48.920;12.880;2023-05-20T10:51:01;97059.09;;;29.21;23.32
78206;BME280;67480;48.920;12.880;2023-05-20T10:53:41;97061.28;;;29.14;23.90
78206;BME280;67480;48.920;12.880;2023-05-20T10:56:16;97061.75;;;30.77;21.87
78206;BME280;67480;48.920;12.880;2023-05-20T10:58:45;97059.59;;;30.94;22.19
78206;BME280;67480;48.920;12.880;2023-05-20T11:01:12;97058.69;;;31.67;20.69
78206;BME280;67480;48.920;12.880;2023-05-20T11:03:39;97064.63;;;31.34;20.28
78206;BME280;67480;48.920;12.880;2023-05-20T11:06:15;97053.00;;;31.14;21.25
78206;BME280;67480;48.920;12.880;2023-05-20T11:08:40;97058.69;;;31.10;21.08
78206;BME280;67480;48.920;12.880;2023-05-20T11:11:06;97043.00;;;30.68;20.74
78206;BME280;67480;48.920;12.880;2023-05-20T11:13:32;97041.44;;;30.16;20.60
78206;BME280;67480;48.920;12.880;2023-05-20T11:15:57;97041.69;;;29.79;21.00
78206;BME280;67480;48.920;12.880;2023-05-20T11:18:25;97043.59;;;29.82;21.73
78206;BME280;67480;48.920;12.880;2023-05-20T11:20:54;97030.47;;;29.41;22.92
78206;BME280;67480;48.920;12.880;2023-05-20T11:23:19;97039.69;;;29.80;21.96
78206;BME280;67480;48.920;12.880;2023-05-20T11:25:49;97049.56;;;30.23;21.28
78206;BME280;67480;48.920;12.880;2023-05-20T11:28:14;97039.88;;;31.14;20.80
78206;BME280;67480;48.920;12.880;2023-05-20T11:30:43;97039.09;;;30.40;21.58
78206;BME280;67480;48.920;12.880;2023-05-20T11:33:14;97032.47;;;29.11;22.70
78206;BME280;67480;48.920;12.880;2023-05-20T11:35:52;97034.19;;;28.39;24.73
78206;BME280;67480;48.920;12.880;2023-05-20T11:38:19;97025.13;;;28.02;23.73
78206;BME280;67480;48.920;12.880;2023-05-20T11:40:49;97027.41;;;27.47;24.44
78206;BME280;67480;48.920;12.880;2023-05-20T11:43:15;97028.03;;;26.67;24.81
78206;BME280;67480;48.920;12.880;2023-05-20T11:45:45;97028.56;;;26.31;25.66
78206;BME280;67480;48.920;12.880;2023-05-20T11:48:11;97031.06;;;26.49;26.26
78206;BME280;67480;48.920;12.880;2023-05-20T11:50:41;97010.25;;;25.87;26.08
78206;BME280;67480;48.920;12.880;2023-05-20T11:53:15;97015.81;;;25.52;26.59
78206;BME280;67480;48.920;12.880;2023-05-20T11:58:28;97034.44;;;24.99;27.52
78206;BME280;67480;48.920;12.880;2023-05-20T12:00:54;97022.84;;;24.73;27.48
78206;BME280;67480;48.920;12.880;2023-05-20T12:03:19;97025.50;;;24.39;28.53
78206;BME280;67480;48.920;12.880;2023-05-20T12:05:45;97020.50;;;24.72;27.49
78206;BME280;67480;48.920;12.880;2023-05-20T12:08:12;97019.16;;;24.91;28.24
78206;BME280;67480;48.920;12.880;2023-05-20T12:10:38;97020.06;;;24.77;27.88
78206;BME280;67480;48.920;12.880;2023-05-20T12:13:03;97036.03;;;25.35;27.28
78206;BME280;67480;48.920;12.880;2023-05-20T12:15:32;97034.19;;;24.86;26.74
78206;BME280;67480;48.920;12.880;2023-05-20T12:17:58;97035.38;;;24.29;27.62
78206;BME280;67480;48.920;12.880;2023-05-20T12:20:23;97023.47;;;23.73;27.72
78206;BME280;67480;48.920;12.880;2023-05-20T12:22:49;97017.50;;;23.92;28.74
78206;BME280;67480;48.920;12.880;2023-05-20T12:25:16;97017.78;;;24.12;27.89
78206;BME280;67480;48.920;12.880;2023-05-20T12:27:43;97013.28;;;24.40;28.86
78206;BME280;67480;48.920;12.880;2023-05-20T12:30:14;97014.25;;;24.68;28.78
78206;BME280;67480;48.920;12.880;2023-05-20T12:32:40;97020.00;;;24.39;28.42
78206;BME280;67480;48.920;12.880;2023-05-20T12:35:05;97015.91;;;24.58;27.57
78206;BME280;67480;48.920;12.880;2023-05-20T12:37:31;97012.63;;;24.22;27.69
78206;BME280;67480;48.920;12.880;2023-05-20T12:39:58;97007.34;;;24.45;29.17
78206;BME280;67480;48.920;12.880;2023-05-20T12:42:23;97007.50;;;24.24;28.65
78206;BME280;67480;48.920;12.880;2023-05-20T12:44:49;97011.84;;;24.25;28.27
78206;BME280;67480;48.920;12.880;2023-05-20T12:47:14;97003.03;;;24.48;28.71
78206;BME280;67480;48.920;12.880;2023-05-20T12:49:40;97005.03;;;24.40;28.73
78206;BME280;67480;48.920;12.880;2023-05-20T12:52:05;97005.81;;;24.44;28.62
78206;BME280;67480;48.920;12.880;2023-05-20T12:54:30;96994.00;;;24.47;28.47